Hlavní strana
METAR-TAF:

METAR-TAF

Letiště :

First Flight Airport

Kill Devil Hills, Severní Karolína, Spojené státy americké

zeměpisná šířka: 36-01N, zeměpisná délka: 075-40W, výška: 4 m

Aktuální stav počasí

Zpráva byla vytvořena před 1 hodinou a 12 minutami, v 21:35 UTC
Jižní vítr 8 kt s nárazy do 16 kt, proměnlivý mezi jihojihovýchodním a jihozápadním
Teplota 19°C
Vlhkost vzduchu 88%
Tlak 998 hPa
Viditelnost: 11.3 km
Oblačno až skoro zataženo ve výšce 2300 ft
Oblačno až skoro zataženo ve výšce 3100 ft
Zataženo ve výšce 7000 ft

METAR: KFFA 302135Z AUTO 17008G16KT 150V220 7SM BKN023 BKN031 OVC070 19/17 A2947 RMK AO2 T01900171

Čas: 17:47 (22:47 UTC)


TAF: chybějící

Stav a předpovědi počasí z více než 4 000 letišť (zprávy METAR a TAF).

Červené a žluté tečky na mapě představují dostupné meteorologické stanice.

Když kurzor umístíte na tečku, zobrazí se název stanice.

Pak kliknutím zobrazíte stav a předpověď počasí.

Chcete-li změnit mapu, kliknutím na zelené tlačítko se znaménkem +mapu přiblížíte, kliknutím na zelené tlačítko se znaménkem – mapu oddálíte a kliknutím na zelené šipky přejdete na sousední mapy.


METAR-TAF: